sensor_id;sensor_type;location;lat;lon;timestamp;P1;durP1;ratioP1;P2;durP2;ratioP2
10246;SDS011;5168;47.854;7.944;2023-04-16T00:01:22;2.70;;;2.50;;
10246;SDS011;5168;47.854;7.944;2023-04-16T00:03:48;3.27;;;3.07;;
10246;SDS011;5168;47.854;7.944;2023-04-16T00:06:14;3.20;;;3.00;;
10246;SDS011;5168;47.854;7.944;2023-04-16T00:08:40;3.37;;;3.00;;
10246;SDS011;5168;47.854;7.944;2023-04-16T00:11:07;2.90;;;2.70;;
10246;SDS011;5168;47.854;7.944;2023-04-16T00:13:33;3.23;;;2.93;;
10246;SDS011;5168;47.854;7.944;2023-04-16T00:15:58;3.53;;;3.23;;
10246;SDS011;5168;47.854;7.944;2023-04-16T00:18:24;3.03;;;2.83;;
10246;SDS011;5168;47.854;7.944;2023-04-16T00:20:51;3.00;;;2.80;;
10246;SDS011;5168;47.854;7.944;2023-04-16T00:23:17;2.80;;;2.60;;
10246;SDS011;5168;47.854;7.944;2023-04-16T00:25:43;2.90;;;2.70;;
10246;SDS011;5168;47.854;7.944;2023-04-16T00:28:09;2.50;;;2.30;;
10246;SDS011;5168;47.854;7.944;2023-04-16T00:30:35;3.67;;;3.40;;
10246;SDS011;5168;47.854;7.944;2023-04-16T00:33:01;3.20;;;3.00;;
10246;SDS011;5168;47.854;7.944;2023-04-16T00:35:28;2.97;;;2.77;;
10246;SDS011;5168;47.854;7.944;2023-04-16T00:37:54;3.00;;;2.80;;
10246;SDS011;5168;47.854;7.944;2023-04-16T00:40:19;2.40;;;2.30;;
10246;SDS011;5168;47.854;7.944;2023-04-16T00:42:45;2.77;;;2.57;;
10246;SDS011;5168;47.854;7.944;2023-04-16T00:45:11;2.87;;;2.67;;
10246;SDS011;5168;47.854;7.944;2023-04-16T00:47:37;2.70;;;2.50;;
10246;SDS011;5168;47.854;7.944;2023-04-16T00:50:02;2.20;;;2.10;;
10246;SDS011;5168;47.854;7.944;2023-04-16T00:52:29;2.40;;;2.20;;
10246;SDS011;5168;47.854;7.944;2023-04-16T00:54:56;2.60;;;2.40;;
10246;SDS011;5168;47.854;7.944;2023-04-16T00:57:23;2.83;;;2.63;;
10246;SDS011;5168;47.854;7.944;2023-04-16T00:59:49;2.60;;;2.40;;
10246;SDS011;5168;47.854;7.944;2023-04-16T01:02:15;2.47;;;2.30;;
10246;SDS011;5168;47.854;7.944;2023-04-16T01:04:41;2.53;;;2.33;;
10246;SDS011;5168;47.854;7.944;2023-04-16T01:07:07;2.80;;;2.60;;
10246;SDS011;5168;47.854;7.944;2023-04-16T01:09:33;2.80;;;2.60;;
10246;SDS011;5168;47.854;7.944;2023-04-16T01:11:59;2.70;;;2.50;;
10246;SDS011;5168;47.854;7.944;2023-04-16T01:14:26;2.97;;;2.77;;
10246;SDS011;5168;47.854;7.944;2023-04-16T01:16:51;2.63;;;2.43;;
10246;SDS011;5168;47.854;7.944;2023-04-16T01:19:17;2.33;;;2.23;;
10246;SDS011;5168;47.854;7.944;2023-04-16T01:21:43;2.30;;;2.20;;
10246;SDS011;5168;47.854;7.944;2023-04-16T01:24:09;2.93;;;2.73;;
10246;SDS011;5168;47.854;7.944;2023-04-16T01:26:35;2.83;;;2.63;;
10246;SDS011;5168;47.854;7.944;2023-04-16T01:29:01;2.70;;;2.50;;
10246;SDS011;5168;47.854;7.944;2023-04-16T01:31:26;2.60;;;2.40;;
10246;SDS011;5168;47.854;7.944;2023-04-16T01:33:52;3.10;;;2.90;;
10246;SDS011;5168;47.854;7.944;2023-04-16T01:36:18;2.97;;;2.77;;
10246;SDS011;5168;47.854;7.944;2023-04-16T01:38:44;2.63;;;2.43;;
10246;SDS011;5168;47.854;7.944;2023-04-16T01:41:10;5.03;;;2.90;;
10246;SDS011;5168;47.854;7.944;2023-04-16T01:43:36;3.87;;;3.53;;
10246;SDS011;5168;47.854;7.944;2023-04-16T01:46:10;3.90;;;3.53;;
10246;SDS011;5168;47.854;7.944;2023-04-16T01:48:41;4.13;;;3.73;;
10246;SDS011;5168;47.854;7.944;2023-04-16T01:51:07;10.30;;;4.30;;
10246;SDS011;5168;47.854;7.944;2023-04-16T01:53:34;5.00;;;4.60;;
10246;SDS011;5168;47.854;7.944;2023-04-16T01:56:00;5.43;;;4.07;;
10246;SDS011;5168;47.854;7.944;2023-04-16T01:58:27;8.10;;;4.67;;
10246;SDS011;5168;47.854;7.944;2023-04-16T02:00:53;4.60;;;4.17;;
10246;SDS011;5168;47.854;7.944;2023-04-16T02:03:19;4.90;;;4.40;;
10246;SDS011;5168;47.854;7.944;2023-04-16T02:05:48;5.20;;;4.70;;
10246;SDS011;5168;47.854;7.944;2023-04-16T02:08:13;5.50;;;4.60;;
10246;SDS011;5168;47.854;7.944;2023-04-16T02:10:39;24.10;;;4.83;;
10246;SDS011;5168;47.854;7.944;2023-04-16T02:13:04;5.23;;;4.73;;
10246;SDS011;5168;47.854;7.944;2023-04-16T02:15:30;5.03;;;4.53;;
10246;SDS011;5168;47.854;7.944;2023-04-16T02:17:56;5.30;;;4.80;;
10246;SDS011;5168;47.854;7.944;2023-04-16T02:20:22;5.30;;;4.80;;
10246;SDS011;5168;47.854;7.944;2023-04-16T02:22:47;7.27;;;5.00;;
10246;SDS011;5168;47.854;7.944;2023-04-16T02:25:13;5.90;;;5.30;;
10246;SDS011;5168;47.854;7.944;2023-04-16T02:27:38;5.27;;;4.77;;
10246;SDS011;5168;47.854;7.944;2023-04-16T02:30:05;5.23;;;4.73;;
10246;SDS011;5168;47.854;7.944;2023-04-16T02:32:31;5.20;;;4.70;;
10246;SDS011;5168;47.854;7.944;2023-04-16T02:34:56;4.77;;;4.27;;
10246;SDS011;5168;47.854;7.944;2023-04-16T02:37:22;4.53;;;4.13;;
10246;SDS011;5168;47.854;7.944;2023-04-16T02:39:49;5.37;;;4.87;;
10246;SDS011;5168;47.854;7.944;2023-04-16T02:42:15;4.87;;;4.43;;
10246;SDS011;5168;47.854;7.944;2023-04-16T02:44:41;4.97;;;4.47;;
10246;SDS011;5168;47.854;7.944;2023-04-16T02:47:07;4.87;;;4.37;;
10246;SDS011;5168;47.854;7.944;2023-04-16T02:49:32;6.93;;;4.67;;
10246;SDS011;5168;47.854;7.944;2023-04-16T02:51:59;5.10;;;4.60;;
10246;SDS011;5168;47.854;7.944;2023-04-16T02:54:25;5.43;;;4.40;;
10246;SDS011;5168;47.854;7.944;2023-04-16T02:56:51;4.53;;;4.13;;
10246;SDS011;5168;47.854;7.944;2023-04-16T02:59:16;4.73;;;4.23;;
10246;SDS011;5168;47.854;7.944;2023-04-16T03:01:42;4.43;;;4.03;;
10246;SDS011;5168;47.854;7.944;2023-04-16T03:04:08;4.10;;;3.80;;
10246;SDS011;5168;47.854;7.944;2023-04-16T03:06:34;3.90;;;3.50;;
10246;SDS011;5168;47.854;7.944;2023-04-16T03:09:00;4.30;;;3.90;;
10246;SDS011;5168;47.854;7.944;2023-04-16T03:11:26;5.53;;;4.80;;
10246;SDS011;5168;47.854;7.944;2023-04-16T03:13:51;4.43;;;4.03;;
10246;SDS011;5168;47.854;7.944;2023-04-16T03:16:17;4.20;;;3.80;;
10246;SDS011;5168;47.854;7.944;2023-04-16T03:18:43;4.87;;;4.47;;
10246;SDS011;5168;47.854;7.944;2023-04-16T03:21:08;4.60;;;4.13;;
10246;SDS011;5168;47.854;7.944;2023-04-16T03:23:34;4.60;;;4.20;;
10246;SDS011;5168;47.854;7.944;2023-04-16T03:26:00;4.63;;;4.23;;
10246;SDS011;5168;47.854;7.944;2023-04-16T03:28:25;4.43;;;4.03;;
10246;SDS011;5168;47.854;7.944;2023-04-16T03:30:52;4.07;;;3.63;;
10246;SDS011;5168;47.854;7.944;2023-04-16T03:33:18;4.20;;;3.80;;
10246;SDS011;5168;47.854;7.944;2023-04-16T03:35:44;4.10;;;3.80;;
10246;SDS011;5168;47.854;7.944;2023-04-16T03:38:10;4.33;;;3.93;;
10246;SDS011;5168;47.854;7.944;2023-04-16T03:40:36;4.53;;;4.13;;
10246;SDS011;5168;47.854;7.944;2023-04-16T03:43:02;6.07;;;4.97;;
10246;SDS011;5168;47.854;7.944;2023-04-16T03:45:28;4.80;;;4.30;;
10246;SDS011;5168;47.854;7.944;2023-04-16T03:47:54;20.93;;;5.53;;
10246;SDS011;5168;47.854;7.944;2023-04-16T03:50:20;5.60;;;4.80;;
10246;SDS011;5168;47.854;7.944;2023-04-16T03:52:46;5.10;;;4.27;;
10246;SDS011;5168;47.854;7.944;2023-04-16T03:55:13;7.37;;;5.30;;
10246;SDS011;5168;47.854;7.944;2023-04-16T03:57:39;6.17;;;5.40;;
10246;SDS011;5168;47.854;7.944;2023-04-16T04:00:05;6.63;;;5.90;;
10246;SDS011;5168;47.854;7.944;2023-04-16T04:02:31;6.63;;;5.93;;
10246;SDS011;5168;47.854;7.944;2023-04-16T04:04:57;7.07;;;6.37;;
10246;SDS011;5168;47.854;7.944;2023-04-16T04:07:23;93.03;;;8.27;;
10246;SDS011;5168;47.854;7.944;2023-04-16T04:09:49;160.70;;;11.33;;
10246;SDS011;5168;47.854;7.944;2023-04-16T04:12:15;13.13;;;11.70;;
10246;SDS011;5168;47.854;7.944;2023-04-16T04:14:41;11.47;;;9.73;;
10246;SDS011;5168;47.854;7.944;2023-04-16T04:17:07;7.80;;;6.70;;
10246;SDS011;5168;47.854;7.944;2023-04-16T04:19:33;7.10;;;6.37;;
10246;SDS011;5168;47.854;7.944;2023-04-16T04:21:58;7.23;;;6.07;;
10246;SDS011;5168;47.854;7.944;2023-04-16T04:24:24;115.03;;;9.10;;
10246;SDS011;5168;47.854;7.944;2023-04-16T04:26:51;12.67;;;5.50;;
10246;SDS011;5168;47.854;7.944;2023-04-16T04:29:16;10.20;;;6.20;;
10246;SDS011;5168;47.854;7.944;2023-04-16T04:31:42;7.40;;;6.50;;
10246;SDS011;5168;47.854;7.944;2023-04-16T04:34:07;6.33;;;5.73;;
10246;SDS011;5168;47.854;7.944;2023-04-16T04:36:33;5.80;;;5.30;;
10246;SDS011;5168;47.854;7.944;2023-04-16T04:38:58;6.13;;;5.37;;
10246;SDS011;5168;47.854;7.944;2023-04-16T04:41:24;6.63;;;5.97;;
10246;SDS011;5168;47.854;7.944;2023-04-16T04:43:50;7.43;;;6.63;;
10246;SDS011;5168;47.854;7.944;2023-04-16T04:46:16;6.63;;;5.87;;
10246;SDS011;5168;47.854;7.944;2023-04-16T04:48:42;6.33;;;5.57;;
10246;SDS011;5168;47.854;7.944;2023-04-16T04:51:08;6.47;;;5.40;;
10246;SDS011;5168;47.854;7.944;2023-04-16T04:53:33;6.63;;;5.93;;
10246;SDS011;5168;47.854;7.944;2023-04-16T04:55:59;6.90;;;6.20;;
10246;SDS011;5168;47.854;7.944;2023-04-16T04:58:25;40.90;;;6.43;;
10246;SDS011;5168;47.854;7.944;2023-04-16T05:00:51;5.63;;;5.13;;
10246;SDS011;5168;47.854;7.944;2023-04-16T05:03:20;6.30;;;5.70;;
10246;SDS011;5168;47.854;7.944;2023-04-16T05:05:45;6.67;;;5.47;;
10246;SDS011;5168;47.854;7.944;2023-04-16T05:08:11;6.50;;;5.80;;
10246;SDS011;5168;47.854;7.944;2023-04-16T05:10:37;18.97;;;6.30;;
10246;SDS011;5168;47.854;7.944;2023-04-16T05:13:03;5.97;;;5.33;;
10246;SDS011;5168;47.854;7.944;2023-04-16T05:15:29;5.30;;;4.80;;
10246;SDS011;5168;47.854;7.944;2023-04-16T05:17:54;6.63;;;5.60;;
10246;SDS011;5168;47.854;7.944;2023-04-16T05:20:21;5.43;;;4.87;;
10246;SDS011;5168;47.854;7.944;2023-04-16T05:22:50;5.40;;;4.70;;
10246;SDS011;5168;47.854;7.944;2023-04-16T05:25:15;5.03;;;4.53;;
10246;SDS011;5168;47.854;7.944;2023-04-16T05:27:41;4.87;;;4.37;;
10246;SDS011;5168;47.854;7.944;2023-04-16T05:30:07;5.27;;;4.77;;
10246;SDS011;5168;47.854;7.944;2023-04-16T05:32:33;6.03;;;5.43;;
10246;SDS011;5168;47.854;7.944;2023-04-16T05:34:59;5.37;;;4.83;;
10246;SDS011;5168;47.854;7.944;2023-04-16T05:37:25;5.33;;;4.83;;
10246;SDS011;5168;47.854;7.944;2023-04-16T05:39:51;5.93;;;5.33;;
10246;SDS011;5168;47.854;7.944;2023-04-16T05:42:16;5.33;;;4.83;;
10246;SDS011;5168;47.854;7.944;2023-04-16T05:44:42;5.47;;;4.97;;
10246;SDS011;5168;47.854;7.944;2023-04-16T05:47:07;6.07;;;5.47;;
10246;SDS011;5168;47.854;7.944;2023-04-16T05:49:36;6.07;;;5.33;;
10246;SDS011;5168;47.854;7.944;2023-04-16T05:52:05;5.93;;;5.33;;
10246;SDS011;5168;47.854;7.944;2023-04-16T05:54:31;5.20;;;4.70;;
10246;SDS011;5168;47.854;7.944;2023-04-16T05:56:56;6.27;;;5.67;;
10246;SDS011;5168;47.854;7.944;2023-04-16T05:59:23;6.87;;;5.43;;
10246;SDS011;5168;47.854;7.944;2023-04-16T06:01:49;26.30;;;6.47;;
10246;SDS011;5168;47.854;7.944;2023-04-16T06:04:15;5.93;;;5.27;;
10246;SDS011;5168;47.854;7.944;2023-04-16T06:06:41;6.30;;;5.70;;
10246;SDS011;5168;47.854;7.944;2023-04-16T06:09:06;6.20;;;4.53;;
10246;SDS011;5168;47.854;7.944;2023-04-16T06:11:32;4.87;;;4.37;;
10246;SDS011;5168;47.854;7.944;2023-04-16T06:13:58;4.30;;;3.90;;
10246;SDS011;5168;47.854;7.944;2023-04-16T06:16:23;4.57;;;4.17;;
10246;SDS011;5168;47.854;7.944;2023-04-16T06:18:49;4.70;;;4.30;;
10246;SDS011;5168;47.854;7.944;2023-04-16T06:21:15;3.87;;;3.53;;
10246;SDS011;5168;47.854;7.944;2023-04-16T06:23:41;3.90;;;3.50;;
10246;SDS011;5168;47.854;7.944;2023-04-16T06:26:06;3.67;;;3.37;;
10246;SDS011;5168;47.854;7.944;2023-04-16T06:28:32;3.40;;;3.10;;
10246;SDS011;5168;47.854;7.944;2023-04-16T06:30:58;3.50;;;3.00;;
10246;SDS011;5168;47.854;7.944;2023-04-16T06:33:24;3.00;;;2.80;;
10246;SDS011;5168;47.854;7.944;2023-04-16T06:35:50;3.17;;;2.90;;
10246;SDS011;5168;47.854;7.944;2023-04-16T06:38:16;2.60;;;2.40;;
10246;SDS011;5168;47.854;7.944;2023-04-16T06:40:42;2.57;;;2.37;;
10246;SDS011;5168;47.854;7.944;2023-04-16T06:43:08;2.67;;;2.47;;
10246;SDS011;5168;47.854;7.944;2023-04-16T06:45:33;2.50;;;2.30;;
10246;SDS011;5168;47.854;7.944;2023-04-16T06:47:59;2.83;;;2.63;;
10246;SDS011;5168;47.854;7.944;2023-04-16T06:50:25;2.70;;;2.50;;
10246;SDS011;5168;47.854;7.944;2023-04-16T06:52:52;2.60;;;2.40;;
10246;SDS011;5168;47.854;7.944;2023-04-16T06:55:18;4.47;;;3.90;;
10246;SDS011;5168;47.854;7.944;2023-04-16T06:57:43;8.97;;;5.93;;
10246;SDS011;5168;47.854;7.944;2023-04-16T07:00:09;5.83;;;4.63;;
10246;SDS011;5168;47.854;7.944;2023-04-16T07:02:35;4.10;;;3.70;;
10246;SDS011;5168;47.854;7.944;2023-04-16T07:05:01;3.30;;;3.10;;
10246;SDS011;5168;47.854;7.944;2023-04-16T07:07:27;2.83;;;2.63;;
10246;SDS011;5168;47.854;7.944;2023-04-16T07:09:53;2.67;;;2.47;;
10246;SDS011;5168;47.854;7.944;2023-04-16T07:12:18;2.60;;;2.50;;
10246;SDS011;5168;47.854;7.944;2023-04-16T07:14:45;2.50;;;2.30;;
10246;SDS011;5168;47.854;7.944;2023-04-16T07:17:11;2.63;;;2.43;;
10246;SDS011;5168;47.854;7.944;2023-04-16T07:19:36;2.50;;;2.40;;
10246;SDS011;5168;47.854;7.944;2023-04-16T07:22:02;2.60;;;2.40;;
10246;SDS011;5168;47.854;7.944;2023-04-16T07:24:28;3.07;;;2.87;;
10246;SDS011;5168;47.854;7.944;2023-04-16T07:26:54;2.43;;;2.23;;
10246;SDS011;5168;47.854;7.944;2023-04-16T07:29:20;2.17;;;2.07;;
10246;SDS011;5168;47.854;7.944;2023-04-16T07:31:46;2.60;;;2.40;;
10246;SDS011;5168;47.854;7.944;2023-04-16T07:34:12;2.83;;;2.63;;
10246;SDS011;5168;47.854;7.944;2023-04-16T07:36:37;2.80;;;2.60;;
10246;SDS011;5168;47.854;7.944;2023-04-16T07:39:03;2.90;;;2.70;;
10246;SDS011;5168;47.854;7.944;2023-04-16T07:41:30;2.30;;;2.20;;
10246;SDS011;5168;47.854;7.944;2023-04-16T07:43:55;2.37;;;2.27;;
10246;SDS011;5168;47.854;7.944;2023-04-16T07:46:21;2.53;;;2.33;;
10246;SDS011;5168;47.854;7.944;2023-04-16T07:48:47;2.43;;;2.33;;
10246;SDS011;5168;47.854;7.944;2023-04-16T07:51:13;2.23;;;2.03;;
10246;SDS011;5168;47.854;7.944;2023-04-16T07:53:39;2.47;;;2.27;;
10246;SDS011;5168;47.854;7.944;2023-04-16T07:56:05;2.37;;;2.17;;
10246;SDS011;5168;47.854;7.944;2023-04-16T07:58:31;2.13;;;2.03;;
10246;SDS011;5168;47.854;7.944;2023-04-16T08:00:56;2.20;;;2.10;;
10246;SDS011;5168;47.854;7.944;2023-04-16T08:03:22;1.87;;;1.77;;
10246;SDS011;5168;47.854;7.944;2023-04-16T08:05:48;2.17;;;2.07;;
10246;SDS011;5168;47.854;7.944;2023-04-16T08:08:14;1.90;;;1.80;;
10246;SDS011;5168;47.854;7.944;2023-04-16T08:10:40;2.27;;;2.07;;
10246;SDS011;5168;47.854;7.944;2023-04-16T08:13:06;2.17;;;2.07;;
10246;SDS011;5168;47.854;7.944;2023-04-16T08:15:31;2.17;;;2.00;;
10246;SDS011;5168;47.854;7.944;2023-04-16T08:17:57;2.00;;;1.90;;
10246;SDS011;5168;47.854;7.944;2023-04-16T08:20:23;2.00;;;1.90;;
10246;SDS011;5168;47.854;7.944;2023-04-16T08:22:49;1.90;;;1.80;;
10246;SDS011;5168;47.854;7.944;2023-04-16T08:25:15;1.70;;;1.60;;
10246;SDS011;5168;47.854;7.944;2023-04-16T08:27:41;2.10;;;2.00;;
10246;SDS011;5168;47.854;7.944;2023-04-16T08:30:07;2.03;;;1.93;;
10246;SDS011;5168;47.854;7.944;2023-04-16T08:32:33;2.10;;;2.00;;
10246;SDS011;5168;47.854;7.944;2023-04-16T08:34:58;2.57;;;2.37;;
10246;SDS011;5168;47.854;7.944;2023-04-16T08:37:24;2.07;;;1.97;;
10246;SDS011;5168;47.854;7.944;2023-04-16T08:39:50;2.40;;;2.30;;
10246;SDS011;5168;47.854;7.944;2023-04-16T08:42:28;2.30;;;2.17;;
10246;SDS011;5168;47.854;7.944;2023-04-16T08:45:01;2.53;;;2.33;;
10246;SDS011;5168;47.854;7.944;2023-04-16T08:47:33;2.23;;;2.10;;
10246;SDS011;5168;47.854;7.944;2023-04-16T08:50:02;2.30;;;2.20;;
10246;SDS011;5168;47.854;7.944;2023-04-16T08:52:29;2.30;;;2.17;;
10246;SDS011;5168;47.854;7.944;2023-04-16T08:54:56;2.90;;;2.70;;
10246;SDS011;5168;47.854;7.944;2023-04-16T08:57:35;2.23;;;2.13;;
10246;SDS011;5168;47.854;7.944;2023-04-16T09:00:03;2.60;;;2.40;;
10246;SDS011;5168;47.854;7.944;2023-04-16T09:02:31;2.40;;;2.20;;
10246;SDS011;5168;47.854;7.944;2023-04-16T09:04:58;2.20;;;2.00;;
10246;SDS011;5168;47.854;7.944;2023-04-16T09:07:24;2.60;;;2.40;;
10246;SDS011;5168;47.854;7.944;2023-04-16T09:09:52;2.30;;;2.20;;
10246;SDS011;5168;47.854;7.944;2023-04-16T09:12:20;2.30;;;2.20;;
10246;SDS011;5168;47.854;7.944;2023-04-16T09:14:48;2.27;;;2.17;;
10246;SDS011;5168;47.854;7.944;2023-04-16T09:17:14;2.20;;;2.10;;
10246;SDS011;5168;47.854;7.944;2023-04-16T09:19:40;2.20;;;2.10;;
10246;SDS011;5168;47.854;7.944;2023-04-16T09:22:06;2.20;;;2.00;;
10246;SDS011;5168;47.854;7.944;2023-04-16T09:24:32;2.07;;;1.97;;
10246;SDS011;5168;47.854;7.944;2023-04-16T09:26:58;2.30;;;2.20;;
10246;SDS011;5168;47.854;7.944;2023-04-16T09:29:40;2.27;;;2.10;;
10246;SDS011;5168;47.854;7.944;2023-04-16T09:32:07;2.20;;;2.10;;
10246;SDS011;5168;47.854;7.944;2023-04-16T09:34:34;2.00;;;1.90;;
10246;SDS011;5168;47.854;7.944;2023-04-16T09:37:18;2.20;;;2.10;;
10246;SDS011;5168;47.854;7.944;2023-04-16T09:39:44;3.17;;;2.87;;
10246;SDS011;5168;47.854;7.944;2023-04-16T09:42:27;2.50;;;2.40;;
10246;SDS011;5168;47.854;7.944;2023-04-16T09:44:54;2.43;;;2.23;;
10246;SDS011;5168;47.854;7.944;2023-04-16T09:47:21;2.20;;;2.10;;
10246;SDS011;5168;47.854;7.944;2023-04-16T09:49:47;2.47;;;2.27;;
10246;SDS011;5168;47.854;7.944;2023-04-16T09:52:13;2.17;;;2.00;;
10246;SDS011;5168;47.854;7.944;2023-04-16T09:54:46;2.37;;;2.17;;
10246;SDS011;5168;47.854;7.944;2023-04-16T09:57:19;2.10;;;2.00;;
10246;SDS011;5168;47.854;7.944;2023-04-16T09:59:46;2.10;;;2.00;;
10246;SDS011;5168;47.854;7.944;2023-04-16T10:02:12;1.90;;;1.80;;
10246;SDS011;5168;47.854;7.944;2023-04-16T10:04:56;2.10;;;2.00;;
10246;SDS011;5168;47.854;7.944;2023-04-16T10:07:22;2.10;;;2.00;;
10246;SDS011;5168;47.854;7.944;2023-04-16T10:09:52;2.20;;;2.10;;
10246;SDS011;5168;47.854;7.944;2023-04-16T10:12:20;1.93;;;1.83;;
10246;SDS011;5168;47.854;7.944;2023-04-16T10:14:46;1.80;;;1.70;;
10246;SDS011;5168;47.854;7.944;2023-04-16T10:17:11;2.30;;;2.10;;
10246;SDS011;5168;47.854;7.944;2023-04-16T10:19:37;1.90;;;1.80;;
10246;SDS011;5168;47.854;7.944;2023-04-16T10:22:04;2.30;;;2.10;;
10246;SDS011;5168;47.854;7.944;2023-04-16T10:24:31;2.00;;;1.90;;
10246;SDS011;5168;47.854;7.944;2023-04-16T10:26:58;2.13;;;1.93;;
10246;SDS011;5168;47.854;7.944;2023-04-16T10:29:28;2.10;;;2.00;;
10246;SDS011;5168;47.854;7.944;2023-04-16T10:31:54;1.93;;;1.83;;
10246;SDS011;5168;47.854;7.944;2023-04-16T10:34:21;2.00;;;1.90;;
10246;SDS011;5168;47.854;7.944;2023-04-16T10:36:48;1.90;;;1.80;;
10246;SDS011;5168;47.854;7.944;2023-04-16T10:39:18;2.20;;;2.00;;
10246;SDS011;5168;47.854;7.944;2023-04-16T10:41:45;2.20;;;2.00;;
10246;SDS011;5168;47.854;7.944;2023-04-16T10:44:11;2.20;;;2.10;;
10246;SDS011;5168;47.854;7.944;2023-04-16T10:46:40;2.10;;;2.00;;
10246;SDS011;5168;47.854;7.944;2023-04-16T10:49:17;2.13;;;2.03;;
10246;SDS011;5168;47.854;7.944;2023-04-16T10:51:56;2.50;;;2.30;;
10246;SDS011;5168;47.854;7.944;2023-04-16T10:54:23;2.83;;;2.63;;
10246;SDS011;5168;47.854;7.944;2023-04-16T10:56:51;3.03;;;2.83;;
10246;SDS011;5168;47.854;7.944;2023-04-16T10:59:18;2.80;;;2.60;;
10246;SDS011;5168;47.854;7.944;2023-04-16T11:01:46;6.77;;;6.27;;
10246;SDS011;5168;47.854;7.944;2023-04-16T11:07:04;3.13;;;2.93;;
10246;SDS011;5168;47.854;7.944;2023-04-16T11:12:12;3.20;;;2.90;;
10246;SDS011;5168;47.854;7.944;2023-04-16T11:14:40;2.47;;;2.27;;
10246;SDS011;5168;47.854;7.944;2023-04-16T11:17:06;2.60;;;2.40;;
10246;SDS011;5168;47.854;7.944;2023-04-16T11:19:34;3.00;;;2.73;;
10246;SDS011;5168;47.854;7.944;2023-04-16T11:22:00;3.60;;;3.30;;
10246;SDS011;5168;47.854;7.944;2023-04-16T11:24:29;3.53;;;3.23;;
10246;SDS011;5168;47.854;7.944;2023-04-16T11:26:56;3.60;;;3.30;;
10246;SDS011;5168;47.854;7.944;2023-04-16T11:29:21;4.20;;;2.93;;
10246;SDS011;5168;47.854;7.944;2023-04-16T11:31:50;3.10;;;2.90;;
10246;SDS011;5168;47.854;7.944;2023-04-16T11:34:17;3.00;;;2.80;;
10246;SDS011;5168;47.854;7.944;2023-04-16T11:36:44;3.00;;;2.80;;
10246;SDS011;5168;47.854;7.944;2023-04-16T11:39:13;2.80;;;2.60;;
10246;SDS011;5168;47.854;7.944;2023-04-16T11:41:42;2.70;;;2.50;;
10246;SDS011;5168;47.854;7.944;2023-04-16T11:44:15;2.60;;;2.40;;
10246;SDS011;5168;47.854;7.944;2023-04-16T11:46:48;3.50;;;3.20;;
10246;SDS011;5168;47.854;7.944;2023-04-16T11:49:14;3.10;;;2.90;;
10246;SDS011;5168;47.854;7.944;2023-04-16T11:51:42;3.73;;;3.37;;
10246;SDS011;5168;47.854;7.944;2023-04-16T11:54:16;3.67;;;3.33;;
10246;SDS011;5168;47.854;7.944;2023-04-16T11:56:47;4.00;;;3.60;;
10246;SDS011;5168;47.854;7.944;2023-04-16T11:59:14;3.73;;;3.43;;
10246;SDS011;5168;47.854;7.944;2023-04-16T12:01:48;3.80;;;3.50;;
10246;SDS011;5168;47.854;7.944;2023-04-16T12:04:16;3.80;;;3.50;;
10246;SDS011;5168;47.854;7.944;2023-04-16T12:07:28;3.93;;;3.53;;
10246;SDS011;5168;47.854;7.944;2023-04-16T12:09:40;4.10;;;3.70;;
10246;SDS011;5168;47.854;7.944;2023-04-16T12:12:26;4.80;;;4.30;;
10246;SDS011;5168;47.854;7.944;2023-04-16T12:14:54;5.17;;;4.47;;
10246;SDS011;5168;47.854;7.944;2023-04-16T12:17:21;4.07;;;3.73;;
10246;SDS011;5168;47.854;7.944;2023-04-16T12:19:50;4.83;;;4.33;;
10246;SDS011;5168;47.854;7.944;2023-04-16T12:22:29;4.93;;;4.17;;
10246;SDS011;5168;47.854;7.944;2023-04-16T12:25:02;8.83;;;4.33;;
10246;SDS011;5168;47.854;7.944;2023-04-16T12:27:51;5.00;;;4.50;;
10246;SDS011;5168;47.854;7.944;2023-04-16T12:30:20;3.50;;;3.20;;
10246;SDS011;5168;47.854;7.944;2023-04-16T12:32:47;4.17;;;3.60;;
10246;SDS011;5168;47.854;7.944;2023-04-16T12:35:27;5.30;;;4.10;;
10246;SDS011;5168;47.854;7.944;2023-04-16T12:37:55;6.13;;;5.07;;
10246;SDS011;5168;47.854;7.944;2023-04-16T12:40:21;5.30;;;4.80;;
10246;SDS011;5168;47.854;7.944;2023-04-16T12:42:47;15.13;;;5.53;;
10246;SDS011;5168;47.854;7.944;2023-04-16T12:45:12;5.30;;;4.63;;
10246;SDS011;5168;47.854;7.944;2023-04-16T12:47:38;7.63;;;6.43;;
10246;SDS011;5168;47.854;7.944;2023-04-16T12:50:03;10.47;;;6.13;;
10246;SDS011;5168;47.854;7.944;2023-04-16T12:52:29;11.70;;;6.30;;
10246;SDS011;5168;47.854;7.944;2023-04-16T12:54:55;8.77;;;6.40;;
10246;SDS011;5168;47.854;7.944;2023-04-16T12:57:21;5.70;;;5.13;;
10246;SDS011;5168;47.854;7.944;2023-04-16T12:59:53;8.07;;;6.57;;
10246;SDS011;5168;47.854;7.944;2023-04-16T13:02:22;7.63;;;6.10;;
10246;SDS011;5168;47.854;7.944;2023-04-16T13:04:48;6.70;;;5.87;;
10246;SDS011;5168;47.854;7.944;2023-04-16T13:07:14;7.47;;;6.67;;
10246;SDS011;5168;47.854;7.944;2023-04-16T13:09:41;8.20;;;6.83;;
10246;SDS011;5168;47.854;7.944;2023-04-16T13:12:07;8.83;;;6.97;;
10246;SDS011;5168;47.854;7.944;2023-04-16T13:14:32;14.33;;;7.10;;
10246;SDS011;5168;47.854;7.944;2023-04-16T13:16:58;18.53;;;6.73;;
10246;SDS011;5168;47.854;7.944;2023-04-16T13:19:24;7.93;;;6.80;;
10246;SDS011;5168;47.854;7.944;2023-04-16T13:21:49;8.63;;;6.30;;
10246;SDS011;5168;47.854;7.944;2023-04-16T13:24:15;7.17;;;5.73;;
10246;SDS011;5168;47.854;7.944;2023-04-16T13:26:41;5.63;;;5.13;;
10246;SDS011;5168;47.854;7.944;2023-04-16T13:29:07;39.70;;;6.60;;
10246;SDS011;5168;47.854;7.944;2023-04-16T13:31:33;6.20;;;5.60;;
10246;SDS011;5168;47.854;7.944;2023-04-16T13:33:59;37.27;;;6.40;;
10246;SDS011;5168;47.854;7.944;2023-04-16T13:36:24;6.23;;;5.63;;
10246;SDS011;5168;47.854;7.944;2023-04-16T13:38:51;7.23;;;5.77;;
10246;SDS011;5168;47.854;7.944;2023-04-16T13:41:16;7.37;;;6.23;;
10246;SDS011;5168;47.854;7.944;2023-04-16T13:43:42;8.07;;;6.40;;
10246;SDS011;5168;47.854;7.944;2023-04-16T13:46:08;7.47;;;6.27;;
10246;SDS011;5168;47.854;7.944;2023-04-16T13:48:34;7.00;;;5.97;;
10246;SDS011;5168;47.854;7.944;2023-04-16T13:51:01;7.23;;;6.30;;
10246;SDS011;5168;47.854;7.944;2023-04-16T13:53:26;7.07;;;5.70;;
10246;SDS011;5168;47.854;7.944;2023-04-16T13:55:52;6.17;;;5.40;;
10246;SDS011;5168;47.854;7.944;2023-04-16T13:58:18;5.93;;;4.97;;
10246;SDS011;5168;47.854;7.944;2023-04-16T14:00:44;5.70;;;4.93;;
10246;SDS011;5168;47.854;7.944;2023-04-16T14:03:10;7.53;;;5.70;;
10246;SDS011;5168;47.854;7.944;2023-04-16T14:05:36;6.60;;;5.90;;
10246;SDS011;5168;47.854;7.944;2023-04-16T14:08:01;6.20;;;5.40;;
10246;SDS011;5168;47.854;7.944;2023-04-16T14:10:27;7.67;;;5.73;;
10246;SDS011;5168;47.854;7.944;2023-04-16T14:12:53;6.90;;;5.53;;
10246;SDS011;5168;47.854;7.944;2023-04-16T14:15:18;6.47;;;5.73;;
10246;SDS011;5168;47.854;7.944;2023-04-16T14:17:44;9.17;;;6.47;;
10246;SDS011;5168;47.854;7.944;2023-04-16T14:20:11;6.97;;;6.27;;
10246;SDS011;5168;47.854;7.944;2023-04-16T14:22:37;7.00;;;6.30;;
10246;SDS011;5168;47.854;7.944;2023-04-16T14:25:04;9.03;;;7.03;;
10246;SDS011;5168;47.854;7.944;2023-04-16T14:27:30;10.73;;;7.80;;
10246;SDS011;5168;47.854;7.944;2023-04-16T14:29:56;8.53;;;6.70;;
10246;SDS011;5168;47.854;7.944;2023-04-16T14:32:22;10.30;;;7.77;;
10246;SDS011;5168;47.854;7.944;2023-04-16T14:34:48;10.73;;;8.80;;
10246;SDS011;5168;47.854;7.944;2023-04-16T14:37:16;12.90;;;9.07;;
10246;SDS011;5168;47.854;7.944;2023-04-16T14:39:42;11.17;;;8.43;;
10246;SDS011;5168;47.854;7.944;2023-04-16T14:42:08;7.93;;;7.03;;
10246;SDS011;5168;47.854;7.944;2023-04-16T14:44:35;8.30;;;6.80;;
10246;SDS011;5168;47.854;7.944;2023-04-16T14:47:00;10.83;;;8.20;;
10246;SDS011;5168;47.854;7.944;2023-04-16T14:49:26;9.43;;;7.17;;
10246;SDS011;5168;47.854;7.944;2023-04-16T14:51:52;8.57;;;6.97;;
10246;SDS011;5168;47.854;7.944;2023-04-16T14:54:18;13.47;;;9.37;;
10246;SDS011;5168;47.854;7.944;2023-04-16T14:56:44;8.83;;;6.30;;
10246;SDS011;5168;47.854;7.944;2023-04-16T14:59:11;8.60;;;7.40;;
10246;SDS011;5168;47.854;7.944;2023-04-16T15:01:36;10.07;;;8.07;;
10246;SDS011;5168;47.854;7.944;2023-04-16T15:04:03;7.17;;;6.37;;